Time;durP1;ratioP1;P1;durP2;ratioP2;P2;SDS_P1;SDS_P2;PMS_P1;PMS_P2;Temp;Humidity;BMP_temperature;BMP_pressure;BME280_temperature;BME280_humidity;BME280_pressure;Samples;Min_cycle;Max_cycle;Signal;HPM_P1;HPM_P2
2024/03/20 00:00:54;;;;;;;17.75;10.43;;;23.70;40.90;;;;;;6158201;28;85567;-58
2024/03/20 00:03:55;;;;;;;19.08;10.27;;;23.60;40.70;;;;;;6156499;28;85126;-59
2024/03/20 00:06:55;;;;;;;14.25;9.70;;;23.60;40.70;;;;;;6158648;28;84019;-60
2024/03/20 00:09:56;;;;;;;15.98;9.30;;;23.60;40.80;;;;;;6160634;28;81741;-60
2024/03/20 00:12:56;;;;;;;14.52;9.05;;;23.60;40.80;;;;;;6159806;28;81453;-60
2024/03/20 00:15:57;;;;;;;13.82;9.15;;;23.60;40.80;;;;;;6157238;28;81166;-60
2024/03/20 00:18:57;;;;;;;13.80;9.05;;;23.60;40.80;;;;;;6164549;28;81288;-60
2024/03/20 00:21:58;;;;;;;17.08;9.93;;;23.60;40.80;;;;;;6156661;28;81137;-61
2024/03/20 00:24:58;;;;;;;14.73;9.02;;;23.60;41.20;;;;;;6171969;28;80456;-59
2024/03/20 00:27:59;;;;;;;17.15;10.07;;;23.60;41.00;;;;;;6154341;28;86869;-59
2024/03/20 00:31:00;;;;;;;14.25;8.95;;;23.60;40.90;;;;;;6169183;28;86352;-59
2024/03/20 00:34:00;;;;;;;16.35;9.98;;;23.60;40.90;;;;;;6172824;28;83197;-59
2024/03/20 00:37:01;;;;;;;13.88;9.35;;;23.60;40.90;;;;;;6173902;28;84110;-59
2024/03/20 00:40:01;;;;;;;13.25;8.70;;;23.60;40.80;;;;;;6175774;28;82781;-59
2024/03/20 00:43:02;;;;;;;16.80;9.95;;;23.60;40.90;;;;;;6176658;28;82799;-57
2024/03/20 00:46:03;;;;;;;15.10;9.07;;;23.60;40.70;;;;;;6164213;28;80899;-56
2024/03/20 00:49:03;;;;;;;14.98;9.52;;;23.60;41.00;;;;;;6175369;28;80488;-58
2024/03/20 00:52:04;;;;;;;16.65;10.18;;;23.60;40.70;;;;;;6176609;28;80818;-58
2024/03/20 00:55:05;;;;;;;17.83;10.15;;;23.60;40.70;;;;;;6173244;28;83228;-58
2024/03/20 00:58:09;;;;;;;14.38;9.48;;;23.60;40.50;;;;;;6172421;28;83081;-58
2024/03/20 01:01:09;;;;;;;15.05;9.35;;;23.60;40.50;;;;;;6176281;28;83605;-58
2024/03/20 01:04:12;;;;;;;18.00;9.43;;;23.60;40.50;;;;;;6179342;28;80879;-57
2024/03/20 01:07:12;;;;;;;15.40;9.68;;;23.60;40.40;;;;;;6185992;28;83830;-58
2024/03/20 01:10:13;;;;;;;14.60;9.43;;;23.60;40.30;;;;;;6177146;28;80462;-58
2024/03/20 01:13:13;;;;;;;14.75;9.48;;;23.60;40.40;;;;;;6176478;28;81387;-59
2024/03/20 01:16:15;;;;;;;15.00;9.13;;;23.60;40.20;;;;;;6175981;28;80415;-59
2024/03/20 01:19:15;;;;;;;16.55;9.73;;;23.60;40.20;;;;;;6175486;28;81644;-63
2024/03/20 01:22:16;;;;;;;14.63;8.88;;;23.60;40.30;;;;;;6175130;28;80629;-64
2024/03/20 01:25:17;;;;;;;17.55;9.23;;;23.60;40.30;;;;;;6175444;28;82035;-63
2024/03/20 01:28:18;;;;;;;17.10;9.73;;;23.60;40.30;;;;;;6176026;28;80362;-62
2024/03/20 01:31:18;;;;;;;16.02;9.40;;;23.60;40.40;;;;;;6176730;28;81666;-62
2024/03/20 01:34:19;;;;;;;16.25;9.20;;;23.60;40.50;;;;;;6174436;28;82209;-62
2024/03/20 01:37:20;;;;;;;15.35;9.63;;;23.60;40.40;;;;;;6176832;28;80047;-62
2024/03/20 01:40:20;;;;;;;17.02;9.65;;;23.50;40.50;;;;;;6175956;28;81371;-52
2024/03/20 01:43:21;;;;;;;14.50;9.30;;;23.50;40.40;;;;;;6175033;28;80449;-53
2024/03/20 01:46:21;;;;;;;17.77;9.88;;;23.50;40.30;;;;;;6175785;28;80590;-50
2024/03/20 01:49:22;;;;;;;14.95;9.77;;;23.50;40.40;;;;;;6175452;28;80824;-54
2024/03/20 01:52:22;;;;;;;15.93;9.98;;;23.50;40.40;;;;;;6175403;28;80469;-52
2024/03/20 01:55:23;;;;;;;14.75;8.93;;;23.50;40.30;;;;;;6172770;28;85073;-49
2024/03/20 01:58:24;;;;;;;14.68;9.30;;;23.50;40.40;;;;;;6176461;28;83046;-57
2024/03/20 02:01:24;;;;;;;17.42;9.48;;;23.50;40.30;;;;;;6173468;28;88757;-57
2024/03/20 02:04:25;;;;;;;14.73;9.07;;;23.50;40.20;;;;;;6174836;28;80610;-58
2024/03/20 02:07:25;;;;;;;15.90;9.40;;;23.40;40.20;;;;;;6168472;28;81673;-58
2024/03/20 02:10:26;;;;;;;15.32;8.60;;;23.50;40.20;;;;;;6177474;28;80361;-56
2024/03/20 02:13:26;;;;;;;13.85;8.13;;;23.50;40.30;;;;;;6179045;28;83187;-57
2024/03/20 02:16:27;;;;;;;14.35;8.75;;;23.40;40.20;;;;;;6196832;28;80846;-58
2024/03/20 02:19:28;;;;;;;13.88;8.52;;;23.50;40.20;;;;;;6187710;28;80721;-58
2024/03/20 02:22:28;;;;;;;15.18;8.95;;;23.40;40.20;;;;;;6180766;28;82449;-58
2024/03/20 02:25:29;;;;;;;11.50;7.93;;;23.50;40.90;;;;;;6178217;28;86835;-58
2024/03/20 02:28:29;;;;;;;13.68;9.15;;;23.50;40.10;;;;;;6192536;28;80568;-58
2024/03/20 02:31:30;;;;;;;11.60;8.00;;;23.50;40.20;;;;;;6179998;28;80116;-58
2024/03/20 02:34:31;;;;;;;13.90;8.75;;;23.50;40.30;;;;;;6178519;28;80979;-58
2024/03/20 02:37:31;;;;;;;11.65;7.88;;;23.50;40.30;;;;;;6179626;28;81187;-58
2024/03/20 02:40:32;;;;;;;13.27;8.02;;;23.50;40.40;;;;;;6177860;28;81096;-59
2024/03/20 02:43:32;;;;;;;13.68;8.38;;;23.50;40.40;;;;;;6178502;28;80478;-58
2024/03/20 02:46:32;;;;;;;16.40;8.75;;;23.50;40.30;;;;;;6178025;28;80490;-58
2024/03/20 02:49:33;;;;;;;11.80;8.18;;;23.50;40.10;;;;;;6178501;28;80326;-59
2024/03/20 02:52:34;;;;;;;15.07;8.50;;;23.50;40.20;;;;;;6178938;28;81007;-57
2024/03/20 02:55:34;;;;;;;15.60;8.73;;;23.50;40.30;;;;;;6187894;28;81397;-57
2024/03/20 02:58:35;;;;;;;14.70;8.65;;;23.50;40.10;;;;;;6184401;28;80611;-58
2024/03/20 03:01:35;;;;;;;14.52;8.95;;;23.40;40.10;;;;;;6179656;28;80885;-58
2024/03/20 03:04:36;;;;;;;12.98;8.38;;;23.40;40.00;;;;;;6184932;28;81063;-57
2024/03/20 03:07:36;;;;;;;14.80;9.00;;;23.40;40.00;;;;;;6185804;28;81266;-56
2024/03/20 03:10:37;;;;;;;13.60;8.18;;;23.40;39.90;;;;;;6179097;28;80712;-57
2024/03/20 03:13:37;;;;;;;12.60;8.05;;;23.40;39.90;;;;;;6178320;28;81522;-58
2024/03/20 03:16:38;;;;;;;12.55;7.57;;;23.40;40.00;;;;;;6177594;28;80151;-58
2024/03/20 03:19:38;;;;;;;12.32;8.23;;;23.40;40.00;;;;;;6178237;28;82501;-59
2024/03/20 03:22:39;;;;;;;12.63;8.10;;;23.40;40.00;;;;;;6178552;28;81876;-56
2024/03/20 03:25:40;;;;;;;15.65;8.85;;;23.40;40.00;;;;;;6178824;28;81455;-57
2024/03/20 03:28:40;;;;;;;11.77;6.90;;;23.40;40.00;;;;;;6179118;28;80351;-58
2024/03/20 03:31:41;;;;;;;14.80;8.43;;;23.40;40.60;;;;;;6176950;28;81326;-59
2024/03/20 03:34:41;;;;;;;11.77;7.60;;;23.40;40.10;;;;;;6178059;28;80915;-59
2024/03/20 03:37:42;;;;;;;14.07;8.95;;;23.40;40.10;;;;;;6178169;28;80807;-58
2024/03/20 03:40:42;;;;;;;13.90;8.73;;;23.40;40.00;;;;;;6178236;28;80513;-58
2024/03/20 03:43:43;;;;;;;15.30;8.77;;;23.40;40.20;;;;;;6177447;28;80887;-59
2024/03/20 03:46:43;;;;;;;13.73;8.23;;;23.40;40.20;;;;;;6175834;28;80494;-57
2024/03/20 03:49:44;;;;;;;14.13;9.00;;;23.40;40.40;;;;;;6177516;28;80338;-58
2024/03/20 03:52:44;;;;;;;14.13;8.13;;;23.40;40.20;;;;;;6177094;28;80514;-58
2024/03/20 03:55:45;;;;;;;12.65;8.15;;;23.40;40.30;;;;;;6178091;28;81285;-58
2024/03/20 03:58:45;;;;;;;13.70;8.63;;;23.40;40.00;;;;;;6171498;28;80450;-58
2024/03/20 04:01:46;;;;;;;12.77;8.68;;;23.40;40.20;;;;;;6176070;28;82919;-58
2024/03/20 04:04:47;;;;;;;15.32;9.65;;;23.40;40.20;;;;;;6178121;28;80448;-58
2024/03/20 04:07:47;;;;;;;12.80;8.32;;;23.40;40.30;;;;;;6174700;28;80359;-57
2024/03/20 04:10:48;;;;;;;15.85;8.80;;;23.40;40.60;;;;;;6175710;28;80457;-56
2024/03/20 04:13:48;;;;;;;12.63;9.05;;;23.40;40.20;;;;;;6177136;28;80793;-57
2024/03/20 04:16:49;;;;;;;13.07;8.60;;;23.30;40.20;;;;;;6173440;28;80700;-59
2024/03/20 04:19:49;;;;;;;15.13;8.07;;;23.40;40.20;;;;;;6175735;28;81766;-59
2024/03/20 04:22:50;;;;;;;14.15;9.38;;;23.50;40.40;;;;;;6179131;28;80756;-59
2024/03/20 04:25:50;;;;;;;14.20;9.40;;;23.50;40.10;;;;;;6177757;28;80541;-59
2024/03/20 04:28:51;;;;;;;15.70;9.18;;;23.50;40.10;;;;;;6176603;28;80621;-59
2024/03/20 04:31:51;;;;;;;15.02;9.30;;;23.50;39.80;;;;;;6178547;28;80924;-59
2024/03/20 04:34:52;;;;;;;17.30;9.65;;;23.60;39.80;;;;;;6177739;28;80550;-57
2024/03/20 04:37:52;;;;;;;15.18;9.85;;;23.60;39.70;;;;;;6178417;28;80504;-58
2024/03/20 04:40:53;;;;;;;14.05;8.75;;;23.60;39.50;;;;;;6176443;28;82383;-56
2024/03/20 04:43:53;;;;;;;17.65;9.93;;;23.70;39.60;;;;;;6177281;28;80508;-63
2024/03/20 04:46:54;;;;;;;17.23;9.88;;;23.70;39.40;;;;;;6176446;28;80097;-63
2024/03/20 04:49:54;;;;;;;15.52;10.05;;;23.70;39.30;;;;;;6177100;28;81438;-63
2024/03/20 04:52:55;;;;;;;16.67;10.25;;;23.70;39.80;;;;;;6172880;28;83443;-62
2024/03/20 04:55:56;;;;;;;17.08;9.75;;;23.70;39.10;;;;;;6173920;28;83282;-66
2024/03/20 04:58:56;;;;;;;14.32;9.65;;;23.80;39.10;;;;;;6174768;28;81796;-64
2024/03/20 05:01:57;;;;;;;16.27;9.90;;;23.80;39.00;;;;;;6158946;28;81243;-64
2024/03/20 05:04:57;;;;;;;16.02;9.90;;;23.80;39.20;;;;;;6163860;28;82531;-64
2024/03/20 05:07:58;;;;;;;18.35;9.85;;;23.80;39.20;;;;;;6165699;28;81732;-66
2024/03/20 05:10:58;;;;;;;23.73;10.23;;;23.80;39.10;;;;;;6140984;28;81456;-67
2024/03/20 05:14:00;;;;;;;14.90;9.60;;;23.80;39.20;;;;;;6167035;28;83352;-65
2024/03/20 05:17:01;;;;;;;18.35;9.63;;;23.80;39.10;;;;;;6167181;28;87633;-64
2024/03/20 05:20:04;;;;;;;15.18;9.57;;;23.80;39.00;;;;;;6175309;28;80919;-50
2024/03/20 05:23:05;;;;;;;13.95;9.52;;;23.80;40.20;;;;;;6172520;28;81380;-51
2024/03/20 05:26:06;;;;;;;14.73;9.73;;;23.80;39.60;;;;;;6174026;28;84448;-47
2024/03/20 05:29:06;;;;;;;18.58;9.77;;;23.80;39.80;;;;;;6174262;28;81280;-54
2024/03/20 05:32:07;;;;;;;19.83;10.35;;;23.90;40.00;;;;;;6174859;28;80706;-48
2024/03/20 05:35:08;;;;;;;18.38;9.73;;;24.00;40.40;;;;;;6170546;28;83230;-57
2024/03/20 05:38:09;;;;;;;15.77;9.35;;;24.00;40.40;;;;;;6173047;28;81476;-56
2024/03/20 05:41:09;;;;;;;20.23;10.57;;;24.00;40.40;;;;;;6174268;28;82991;-56
2024/03/20 05:44:10;;;;;;;15.65;8.73;;;24.00;40.50;;;;;;6169396;28;83034;-50
2024/03/20 05:47:10;;;;;;;17.60;9.77;;;24.00;40.60;;;;;;6173178;28;83343;-55
2024/03/20 05:50:11;;;;;;;23.33;10.20;;;24.00;40.30;;;;;;6161020;28;88644;-56
2024/03/20 05:53:12;;;;;;;18.52;9.75;;;24.00;40.80;;;;;;6153801;28;83460;-54
2024/03/20 05:56:13;;;;;;;22.27;9.85;;;24.00;40.60;;;;;;6160641;28;83348;-50
2024/03/20 05:59:13;;;;;;;20.70;9.93;;;24.00;40.60;;;;;;6173236;28;80482;-52
2024/03/20 06:02:14;;;;;;;20.98;10.45;;;24.00;40.70;;;;;;6161433;28;80435;-53
2024/03/20 06:05:16;;;;;;;15.25;10.23;;;24.00;40.90;;;;;;6164578;28;83044;-51
2024/03/20 06:08:16;;;;;;;21.83;10.15;;;24.00;40.90;;;;;;6160377;28;83546;-50
2024/03/20 06:11:18;;;;;;;19.00;9.88;;;24.00;40.70;;;;;;6166105;28;83451;-49
2024/03/20 06:14:19;;;;;;;16.35;10.52;;;24.00;40.60;;;;;;6167514;28;83065;-58
2024/03/20 06:17:19;;;;;;;17.80;10.15;;;24.00;40.40;;;;;;6169614;28;84264;-58
2024/03/20 06:20:20;;;;;;;16.48;10.15;;;23.90;40.30;;;;;;6171686;28;83388;-58
2024/03/20 06:23:21;;;;;;;18.13;10.18;;;23.90;40.20;;;;;;6172336;28;83139;-59
2024/03/20 06:26:22;;;;;;;19.13;9.98;;;23.90;40.70;;;;;;6150283;28;86400;-59
2024/03/20 06:29:23;;;;;;;19.67;10.50;;;23.90;40.10;;;;;;6166506;28;83702;-58
2024/03/20 06:32:23;;;;;;;18.88;10.18;;;23.90;40.00;;;;;;6168037;28;83347;-57
2024/03/20 06:35:24;;;;;;;20.27;11.27;;;23.90;40.10;;;;;;6166689;28;83344;-56
2024/03/20 06:38:24;;;;;;;17.65;10.73;;;23.90;40.10;;;;;;6170622;28;82963;-57
2024/03/20 06:41:25;;;;;;;16.65;10.63;;;23.80;39.80;;;;;;6171446;28;83267;-57
2024/03/20 06:44:25;;;;;;;23.70;10.77;;;23.90;40.00;;;;;;6168494;28;83806;-55
2024/03/20 06:47:26;;;;;;;17.98;10.27;;;23.80;39.90;;;;;;6169349;28;82938;-53
2024/03/20 06:50:29;;;;;;;15.25;9.98;;;23.80;39.70;;;;;;6167432;28;83626;-59
2024/03/20 06:53:30;;;;;;;19.60;9.70;;;23.80;39.70;;;;;;6171910;28;83303;-58
2024/03/20 06:56:31;;;;;;;20.02;10.73;;;23.90;39.50;;;;;;6177587;28;81765;-56
2024/03/20 06:59:33;;;;;;;14.48;9.10;;;23.90;39.30;;;;;;6174997;28;83376;-58
2024/03/20 07:02:34;;;;;;;19.08;9.82;;;23.80;39.60;;;;;;6178511;28;81845;-58
2024/03/20 07:05:34;;;;;;;18.08;10.80;;;23.80;39.00;;;;;;6176807;28;82912;-58
2024/03/20 07:08:35;;;;;;;16.80;10.20;;;23.90;39.00;;;;;;6176472;28;84242;-50
2024/03/20 07:11:37;;;;;;;21.05;10.57;;;23.80;39.10;;;;;;6175741;28;82871;-63
2024/03/20 07:14:37;;;;;;;15.18;8.95;;;23.90;39.40;;;;;;6173993;28;83816;-64
2024/03/20 07:17:38;;;;;;;24.42;9.68;;;23.90;39.40;;;;;;6178288;28;82988;-63
2024/03/20 07:20:39;;;;;;;18.65;10.65;;;23.90;39.70;;;;;;6177894;28;80860;-66
2024/03/20 07:23:40;;;;;;;18.25;9.60;;;23.80;39.80;;;;;;6176504;28;84189;-64
2024/03/20 07:26:40;;;;;;;15.95;9.25;;;23.90;39.80;;;;;;6178433;28;82579;-62
2024/03/20 07:29:41;;;;;;;19.45;10.18;;;23.80;39.90;;;;;;6177986;28;80393;-66
2024/03/20 07:32:41;;;;;;;13.70;8.90;;;23.90;39.90;;;;;;6174629;28;83480;-64
2024/03/20 07:35:43;;;;;;;14.05;8.80;;;23.90;39.80;;;;;;6176494;28;83156;-64
2024/03/20 07:38:44;;;;;;;11.98;8.35;;;23.90;39.60;;;;;;6176602;28;81524;-64
2024/03/20 07:41:45;;;;;;;16.20;9.55;;;23.90;39.50;;;;;;6177889;28;80930;-66
2024/03/20 07:44:47;;;;;;;15.52;9.00;;;23.90;39.50;;;;;;6179151;28;80524;-65
2024/03/20 07:47:48;;;;;;;16.58;9.48;;;23.80;39.40;;;;;;6175910;28;80920;-55
2024/03/20 07:50:48;;;;;;;17.58;9.20;;;23.90;39.30;;;;;;6177259;28;80639;-56
2024/03/20 07:53:49;;;;;;;15.70;9.45;;;23.90;39.40;;;;;;6177372;28;80270;-53
2024/03/20 07:56:50;;;;;;;16.40;9.18;;;23.90;39.20;;;;;;6176824;28;80923;-55
2024/03/20 07:59:50;;;;;;;16.90;9.98;;;23.90;39.30;;;;;;6178112;28;80644;-56
2024/03/20 08:02:51;;;;;;;14.60;9.18;;;23.90;39.20;;;;;;6172538;28;83290;-53
2024/03/20 08:05:51;;;;;;;12.77;9.10;;;23.90;39.20;;;;;;6176464;28;82865;-56
2024/03/20 08:08:52;;;;;;;14.55;9.48;;;23.90;39.20;;;;;;6176309;28;81577;-58
2024/03/20 08:11:53;;;;;;;14.82;9.57;;;23.90;39.30;;;;;;6176633;28;83820;-58
2024/03/20 08:14:53;;;;;;;18.10;9.40;;;23.90;39.30;;;;;;6175967;28;80549;-58
2024/03/20 08:17:54;;;;;;;17.63;10.40;;;23.90;39.40;;;;;;6175960;28;80824;-57
2024/03/20 08:20:54;;;;;;;15.23;10.13;;;24.00;39.40;;;;;;6174018;28;82994;-57
2024/03/20 08:23:56;;;;;;;14.82;8.88;;;23.90;39.40;;;;;;6174233;28;82988;-66
2024/03/20 08:26:58;;;;;;;16.15;9.88;;;23.90;39.60;;;;;;6178171;28;82843;-65
2024/03/20 08:29:58;;;;;;;17.80;9.93;;;23.90;39.50;;;;;;6177834;28;80539;-67
2024/03/20 08:32:59;;;;;;;13.82;8.10;;;23.90;39.50;;;;;;6186479;28;80759;-67
2024/03/20 08:35:59;;;;;;;16.65;8.45;;;23.90;39.60;;;;;;6188803;28;80875;-67
2024/03/20 08:39:00;;;;;;;13.43;8.45;;;24.00;39.60;;;;;;6182756;28;81295;-69
2024/03/20 08:42:00;;;;;;;15.18;8.80;;;24.00;39.80;;;;;;6177415;28;80850;-52
2024/03/20 08:45:02;;;;;;;12.90;8.05;;;24.00;39.50;;;;;;6177044;28;80322;-51
2024/03/20 08:48:03;;;;;;;15.05;8.73;;;24.00;39.70;;;;;;6176778;28;81751;-52
2024/03/20 08:51:03;;;;;;;15.93;9.13;;;24.10;39.90;;;;;;6176386;28;80470;-51
2024/03/20 08:54:04;;;;;;;13.93;8.52;;;24.10;39.70;;;;;;6176532;28;82598;-50
2024/03/20 08:57:07;;;;;;;13.48;9.25;;;24.10;39.50;;;;;;6176523;28;80572;-52
2024/03/20 09:00:10;;;;;;;13.50;9.30;;;24.20;39.40;;;;;;6176366;28;80832;-47
2024/03/20 09:03:11;;;;;;;15.30;8.95;;;24.20;39.30;;;;;;6175146;28;80781;-51
2024/03/20 09:06:11;;;;;;;14.00;9.00;;;24.20;39.10;;;;;;6174539;28;80808;-48
2024/03/20 09:09:12;;;;;;;13.10;8.38;;;24.20;39.00;;;;;;6175389;28;83773;-50
2024/03/20 09:12:12;;;;;;;18.13;10.07;;;24.30;39.10;;;;;;6174952;28;81042;-54
2024/03/20 09:15:13;;;;;;;13.38;9.10;;;24.30;38.90;;;;;;6172857;28;82976;-53
2024/03/20 09:18:14;;;;;;;14.25;8.73;;;24.30;39.30;;;;;;6175366;28;81804;-57
2024/03/20 09:21:14;;;;;;;15.07;8.93;;;24.30;39.30;;;;;;6188814;28;80405;-59
2024/03/20 09:24:15;;;;;;;13.98;8.45;;;24.30;39.30;;;;;;6175708;28;80963;-54
2024/03/20 09:27:15;;;;;;;16.65;8.25;;;24.30;39.50;;;;;;6175936;28;80519;-51
2024/03/20 09:30:16;;;;;;;15.27;8.98;;;24.30;39.40;;;;;;6176954;28;80161;-53
2024/03/20 09:33:16;;;;;;;10.13;7.45;;;24.30;39.40;;;;;;6175996;28;80957;-54
2024/03/20 09:36:17;;;;;;;12.90;9.05;;;24.20;39.50;;;;;;6176052;28;80572;-57
2024/03/20 09:39:18;;;;;;;13.77;8.68;;;24.20;39.70;;;;;;6176132;28;81629;-54
2024/03/20 09:42:18;;;;;;;12.30;8.38;;;24.20;39.80;;;;;;6176569;28;83412;-54
2024/03/20 09:45:19;;;;;;;13.32;8.45;;;24.20;39.80;;;;;;6175706;28;80624;-53
2024/03/20 09:48:20;;;;;;;12.23;8.23;;;24.30;39.90;;;;;;6175735;28;83689;-55
2024/03/20 09:51:20;;;;;;;15.18;8.38;;;24.30;39.90;;;;;;6176147;28;82925;-56
2024/03/20 09:54:22;;;;;;;12.60;8.57;;;24.30;40.00;;;;;;6176144;28;81427;-59
2024/03/20 09:57:24;;;;;;;11.70;7.60;;;24.40;39.90;;;;;;6175204;28;80389;-59
2024/03/20 10:00:25;;;;;;;11.70;7.70;;;24.40;40.00;;;;;;6175653;28;80420;-59
2024/03/20 10:03:25;;;;;;;11.93;7.38;;;24.40;40.00;;;;;;6175792;28;80143;-59
2024/03/20 10:06:27;;;;;;;14.70;8.45;;;24.50;40.00;;;;;;6174867;28;80241;-59
2024/03/20 10:09:29;;;;;;;12.70;7.45;;;24.50;40.00;;;;;;6175357;28;80955;-59
2024/03/20 10:12:29;;;;;;;13.10;7.80;;;24.50;40.00;;;;;;6176015;28;81711;-65
2024/03/20 10:15:31;;;;;;;12.65;7.88;;;24.60;40.00;;;;;;6175984;28;80718;-65
2024/03/20 10:18:32;;;;;;;10.93;6.88;;;24.60;40.00;;;;;;6175121;28;81133;-65
2024/03/20 10:21:36;;;;;;;10.85;7.68;;;24.60;39.90;;;;;;6188292;28;81263;-65
2024/03/20 10:24:37;;;;;;;14.98;7.40;;;24.60;40.00;;;;;;6174820;28;80371;-66
2024/03/20 10:27:37;;;;;;;11.68;7.22;;;24.60;40.00;;;;;;6175143;28;81309;-66
2024/03/20 10:30:38;;;;;;;14.25;7.60;;;24.50;40.20;;;;;;6176522;28;80555;-55
2024/03/20 10:33:38;;;;;;;11.65;7.43;;;24.50;40.20;;;;;;6179667;28;80601;-54
2024/03/20 10:36:39;;;;;;;10.75;7.03;;;24.50;40.50;;;;;;6180697;28;80448;-56
2024/03/20 10:39:39;;;;;;;9.95;7.00;;;24.60;40.40;;;;;;6175657;28;80514;-55
2024/03/20 10:42:40;;;;;;;16.25;8.98;;;24.70;40.30;;;;;;6177572;28;82328;-56
2024/03/20 10:45:41;;;;;;;21.83;10.70;;;24.70;38.50;;;;;;6177963;28;81348;-56
2024/03/20 10:48:42;;;;;;;17.55;11.30;;;24.60;36.90;;;;;;6172993;28;83039;-54
2024/03/20 10:51:43;;;;;;;21.67;12.45;;;24.50;36.00;;;;;;6170674;28;85220;-49
2024/03/20 10:54:44;;;;;;;25.48;10.95;;;24.40;35.90;;;;;;6177460;28;82962;-51
2024/03/20 10:57:45;;;;;;;21.90;11.63;;;24.40;35.30;;;;;;6178114;28;83105;-50
2024/03/20 11:00:45;;;;;;;20.50;11.80;;;24.30;35.10;;;;;;6173929;28;88455;-49
2024/03/20 11:03:51;;;;;;;21.40;11.68;;;24.30;34.90;;;;;;6174434;28;83507;-51
2024/03/20 11:06:52;;;;;;;21.17;12.10;;;24.30;34.60;;;;;;6163860;28;83082;-48
2024/03/20 11:09:53;;;;;;;26.27;13.43;;;24.20;34.30;;;;;;6177061;28;83791;-56
2024/03/20 11:12:54;;;;;;;25.70;13.10;;;24.20;33.70;;;;;;6176772;28;85862;-57
2024/03/20 11:15:55;;;;;;;19.50;12.18;;;24.00;33.20;;;;;;6174700;28;83233;-56
2024/03/20 11:19:01;;;;;;;21.58;11.98;;;24.00;33.80;;;;;;6175683;28;84717;-55
2024/03/20 11:22:03;;;;;;;21.00;11.65;;;24.00;34.40;;;;;;6177462;28;82884;-57
2024/03/20 11:25:04;;;;;;;26.65;11.57;;;24.00;34.40;;;;;;6173156;28;83601;-53
2024/03/20 11:28:04;;;;;;;22.10;12.15;;;24.00;34.70;;;;;;6177452;28;83022;-51
2024/03/20 11:31:05;;;;;;;22.30;11.90;;;24.00;34.80;;;;;;6175786;28;86671;-53
2024/03/20 11:34:05;;;;;;;20.95;11.32;;;24.00;35.00;;;;;;6175675;28;83468;-48
2024/03/20 11:37:06;;;;;;;20.67;11.68;;;24.00;35.20;;;;;;6163278;28;85089;-52
2024/03/20 11:40:06;;;;;;;20.90;11.55;;;24.00;35.90;;;;;;6175272;28;82883;-46
2024/03/20 11:43:07;;;;;;;20.50;11.95;;;24.10;35.70;;;;;;6164939;28;83358;-53
2024/03/20 11:46:07;;;;;;;19.67;10.18;;;24.10;36.40;;;;;;6163633;28;83895;-55
2024/03/20 11:49:09;;;;;;;27.55;10.60;;;24.10;36.10;;;;;;6174881;28;83366;-56
2024/03/20 11:52:09;;;;;;;21.08;11.57;;;24.10;35.30;;;;;;6160191;28;84492;-54
2024/03/20 11:55:10;;;;;;;20.88;11.30;;;24.20;35.40;;;;;;6174185;28;84747;-49
2024/03/20 11:58:12;;;;;;;21.83;11.32;;;24.10;34.90;;;;;;6176805;28;83180;-54
2024/03/20 12:01:13;;;;;;;22.30;10.68;;;24.10;34.60;;;;;;6177089;28;84200;-53
2024/03/20 12:04:13;;;;;;;18.67;10.65;;;24.10;34.10;;;;;;6170941;28;83346;-56
2024/03/20 12:07:14;;;;;;;21.50;10.77;;;24.10;34.60;;;;;;6163778;28;84597;-55
2024/03/20 12:10:14;;;;;;;18.73;10.27;;;24.10;34.20;;;;;;6171504;28;90612;-53
2024/03/20 12:13:16;;;;;;;20.88;9.68;;;24.10;34.00;;;;;;6173934;28;83422;-57
2024/03/20 12:16:16;;;;;;;15.38;10.45;;;24.10;34.10;;;;;;6164409;28;83262;-54
2024/03/20 12:19:17;;;;;;;16.50;11.05;;;24.10;33.80;;;;;;6169645;28;83014;-54
2024/03/20 12:22:19;;;;;;;17.88;9.75;;;24.10;34.00;;;;;;6172845;28;84418;-54
2024/03/20 12:25:20;;;;;;;15.88;10.15;;;24.10;33.80;;;;;;6177953;28;84312;-51
2024/03/20 12:28:20;;;;;;;19.52;10.68;;;24.10;34.00;;;;;;6174913;28;83107;-54
2024/03/20 12:31:21;;;;;;;19.30;9.52;;;24.20;33.60;;;;;;6171145;28;85500;-55
2024/03/20 12:34:21;;;;;;;16.25;9.52;;;24.20;33.70;;;;;;6174608;28;82901;-54
2024/03/20 12:37:22;;;;;;;17.70;9.73;;;24.20;33.10;;;;;;6171830;28;80675;-55
2024/03/20 12:40:22;;;;;;;14.07;9.27;;;24.20;32.80;;;;;;6176165;28;80517;-53
2024/03/20 12:43:23;;;;;;;13.90;9.35;;;24.20;32.70;;;;;;6181537;28;80240;-54
2024/03/20 12:46:23;;;;;;;16.27;9.75;;;24.20;32.60;;;;;;6178637;28;80501;-54
2024/03/20 12:49:24;;;;;;;15.77;7.85;;;24.20;32.50;;;;;;6174953;28;81192;-55
2024/03/20 12:52:25;;;;;;;13.20;8.48;;;24.20;32.50;;;;;;6178430;28;81546;-52
2024/03/20 12:55:27;;;;;;;16.27;8.68;;;24.20;32.70;;;;;;6177903;28;80816;-54
2024/03/20 12:58:27;;;;;;;16.13;8.85;;;24.20;32.10;;;;;;6167001;28;81526;-51
2024/03/20 13:01:28;;;;;;;15.65;8.52;;;24.20;31.80;;;;;;6174307;28;83312;-54
2024/03/20 13:04:29;;;;;;;23.95;9.20;;;24.20;31.60;;;;;;6176404;28;80885;-53
2024/03/20 13:07:30;;;;;;;15.50;9.10;;;24.10;31.90;;;;;;6176956;28;81858;-55
2024/03/20 13:10:31;;;;;;;10.70;7.45;;;24.10;32.30;;;;;;6177400;28;80788;-55
2024/03/20 13:13:32;;;;;;;16.27;8.57;;;24.20;32.90;;;;;;6176412;28;80079;-54
2024/03/20 13:16:33;;;;;;;12.88;7.20;;;24.20;33.10;;;;;;6166121;28;82003;-53
2024/03/20 13:19:34;;;;;;;17.23;7.40;;;24.30;33.10;;;;;;6176817;28;81907;-53
2024/03/20 13:22:34;;;;;;;11.27;7.47;;;24.30;33.20;;;;;;6178728;28;80324;-55
2024/03/20 13:25:35;;;;;;;12.55;7.13;;;24.30;32.70;;;;;;6173293;28;81438;-52
2024/03/20 13:28:37;;;;;;;10.25;6.70;;;24.40;33.10;;;;;;6175167;28;80549;-54
2024/03/20 13:31:39;;;;;;;13.80;7.13;;;24.40;32.80;;;;;;6178461;28;80705;-57
2024/03/20 13:34:40;;;;;;;13.00;6.88;;;24.40;32.80;;;;;;6173332;28;83432;-58
2024/03/20 13:37:42;;;;;;;8.82;6.20;;;24.40;32.60;;;;;;6173338;28;80869;-58
2024/03/20 13:40:46;;;;;;;12.18;6.57;;;24.50;32.10;;;;;;6175270;28;81273;-56
2024/03/20 13:46:59;;;;;;;12.25;6.10;;;24.50;33.20;;;;;;6174743;28;80632;-54
2024/03/20 13:50:00;;;;;;;13.40;6.88;;;24.60;33.80;;;;;;6174563;28;85341;-51
2024/03/20 13:53:00;;;;;;;10.50;6.18;;;24.60;33.90;;;;;;6178776;28;80200;-51
2024/03/20 13:56:01;;;;;;;9.23;5.78;;;24.50;33.40;;;;;;6172429;28;81794;-54
2024/03/20 13:59:01;;;;;;;10.93;6.60;;;24.60;32.70;;;;;;6174783;28;81091;-55
2024/03/20 14:02:02;;;;;;;9.70;6.68;;;24.50;32.30;;;;;;6175254;28;80751;-55
2024/03/20 14:05:03;;;;;;;11.27;6.68;;;24.50;32.50;;;;;;6176808;28;83224;-51
2024/03/20 14:08:03;;;;;;;12.80;7.40;;;24.50;32.30;;;;;;6186100;28;80546;-55
2024/03/20 14:11:04;;;;;;;12.57;7.07;;;24.40;32.30;;;;;;6182380;28;80497;-55
2024/03/20 14:14:04;;;;;;;13.07;7.47;;;24.40;32.60;;;;;;6177094;28;80915;-55
2024/03/20 14:17:06;;;;;;;11.30;7.63;;;24.30;32.90;;;;;;6176867;28;80436;-54
2024/03/20 14:20:07;;;;;;;16.30;8.32;;;24.40;33.10;;;;;;6176742;28;80695;-53
2024/03/20 14:23:07;;;;;;;12.25;8.18;;;24.40;33.10;;;;;;6176673;28;80891;-55
2024/03/20 14:26:08;;;;;;;15.45;8.38;;;24.40;33.20;;;;;;6179058;28;81098;-56
2024/03/20 14:29:08;;;;;;;17.85;8.77;;;24.40;33.40;;;;;;6178296;28;80986;-54
2024/03/20 14:32:09;;;;;;;15.60;8.32;;;24.30;33.40;;;;;;6179627;28;80903;-52
2024/03/20 14:35:10;;;;;;;17.35;9.07;;;24.30;33.40;;;;;;6193777;28;80890;-54
2024/03/20 14:38:53;;;;;;;15.82;8.88;;;24.30;33.50;;;;;;6179631;28;81844;-57
2024/03/20 14:41:34;;;;;;;12.98;9.25;;;24.30;33.60;;;;;;6168381;28;83638;-57
2024/03/20 14:44:34;;;;;;;16.80;8.93;;;24.30;34.00;;;;;;6175513;28;86887;-55
2024/03/20 14:47:35;;;;;;;16.98;7.07;;;24.30;34.00;;;;;;6178197;28;83272;-53
2024/03/20 14:50:35;;;;;;;16.17;8.70;;;24.30;34.40;;;;;;6161452;28;80353;-63
2024/03/20 14:53:36;;;;;;;16.60;8.38;;;24.30;34.40;;;;;;6175772;28;81159;-63
2024/03/20 14:56:37;;;;;;;16.75;8.65;;;24.30;34.60;;;;;;6171316;28;80283;-65
2024/03/20 14:59:38;;;;;;;10.90;7.22;;;24.30;34.60;;;;;;6172779;28;82533;-64
2024/03/20 15:02:38;;;;;;;15.02;7.28;;;24.30;36.10;;;;;;6176080;28;80876;-63
2024/03/20 15:05:40;;;;;;;11.73;7.38;;;24.30;35.50;;;;;;6176285;28;83831;-61
2024/03/20 15:08:40;;;;;;;14.68;7.65;;;24.30;35.80;;;;;;6179514;28;80677;-61
2024/03/20 15:11:43;;;;;;;12.32;7.40;;;24.30;35.40;;;;;;6174202;28;80876;-63
2024/03/20 15:14:43;;;;;;;14.35;9.60;;;24.30;35.80;;;;;;6174142;28;81492;-64
2024/03/20 15:17:46;;;;;;;15.30;9.50;;;24.20;35.20;;;;;;6177376;28;80420;-64
2024/03/20 15:20:47;;;;;;;16.77;8.95;;;24.20;35.20;;;;;;6169953;28;80695;-64
2024/03/20 15:23:48;;;;;;;17.33;8.93;;;24.10;35.10;;;;;;6177420;28;81197;-64
2024/03/20 15:26:49;;;;;;;13.68;9.02;;;24.20;35.40;;;;;;6172079;28;82053;-56
2024/03/20 15:29:50;;;;;;;15.38;9.57;;;24.10;35.30;;;;;;6177556;28;80941;-57